sensor_id;sensor_type;location;lat;lon;timestamp;temperature;humidity
73643;DHT22;61938;48.652;9.292;2023-07-24T00:01:40;19.20;99.90
73643;DHT22;61938;48.652;9.292;2023-07-24T00:04:07;19.20;99.90
73643;DHT22;61938;48.652;9.292;2023-07-24T00:06:32;19.30;99.90
73643;DHT22;61938;48.652;9.292;2023-07-24T00:08:58;19.30;99.90
73643;DHT22;61938;48.652;9.292;2023-07-24T00:11:24;19.30;99.90
73643;DHT22;61938;48.652;9.292;2023-07-24T00:13:49;19.40;99.90
73643;DHT22;61938;48.652;9.292;2023-07-24T00:16:15;19.40;99.90
73643;DHT22;61938;48.652;9.292;2023-07-24T00:18:40;19.40;99.90
73643;DHT22;61938;48.652;9.292;2023-07-24T00:21:07;19.40;99.90
73643;DHT22;61938;48.652;9.292;2023-07-24T00:23:32;19.40;99.90
73643;DHT22;61938;48.652;9.292;2023-07-24T00:25:57;19.40;99.90
73643;DHT22;61938;48.652;9.292;2023-07-24T00:28:23;19.40;99.90
73643;DHT22;61938;48.652;9.292;2023-07-24T00:30:49;19.40;99.90
73643;DHT22;61938;48.652;9.292;2023-07-24T00:33:14;19.40;99.90
73643;DHT22;61938;48.652;9.292;2023-07-24T00:35:39;19.40;99.90
73643;DHT22;61938;48.652;9.292;2023-07-24T00:38:05;19.30;99.90
73643;DHT22;61938;48.652;9.292;2023-07-24T00:40:30;19.20;99.90
73643;DHT22;61938;48.652;9.292;2023-07-24T00:42:56;19.10;99.90
73643;DHT22;61938;48.652;9.292;2023-07-24T00:45:22;18.90;99.90
73643;DHT22;61938;48.652;9.292;2023-07-24T00:47:48;18.80;99.90
73643;DHT22;61938;48.652;9.292;2023-07-24T00:50:13;18.60;99.90
73643;DHT22;61938;48.652;9.292;2023-07-24T00:52:40;18.50;99.90
73643;DHT22;61938;48.652;9.292;2023-07-24T00:55:06;18.40;99.90
73643;DHT22;61938;48.652;9.292;2023-07-24T00:57:32;18.50;99.90
73643;DHT22;61938;48.652;9.292;2023-07-24T00:59:58;18.60;99.90
73643;DHT22;61938;48.652;9.292;2023-07-24T01:02:25;18.50;99.90
73643;DHT22;61938;48.652;9.292;2023-07-24T01:04:50;18.60;99.90
73643;DHT22;61938;48.652;9.292;2023-07-24T01:07:16;18.50;99.90
73643;DHT22;61938;48.652;9.292;2023-07-24T01:09:42;18.50;99.90
73643;DHT22;61938;48.652;9.292;2023-07-24T01:12:16;18.50;99.90
73643;DHT22;61938;48.652;9.292;2023-07-24T01:14:51;18.50;99.90
73643;DHT22;61938;48.652;9.292;2023-07-24T01:17:22;18.40;99.90
73643;DHT22;61938;48.652;9.292;2023-07-24T01:20:04;18.40;99.90
73643;DHT22;61938;48.652;9.292;2023-07-24T01:22:39;18.30;99.90
73643;DHT22;61938;48.652;9.292;2023-07-24T01:25:23;18.30;99.90
73643;DHT22;61938;48.652;9.292;2023-07-24T01:27:52;18.40;99.90
73643;DHT22;61938;48.652;9.292;2023-07-24T01:30:19;18.30;99.90
73643;DHT22;61938;48.652;9.292;2023-07-24T01:32:44;18.10;99.90
73643;DHT22;61938;48.652;9.292;2023-07-24T01:35:10;18.20;99.90
73643;DHT22;61938;48.652;9.292;2023-07-24T01:37:37;18.10;99.90
73643;DHT22;61938;48.652;9.292;2023-07-24T01:40:10;17.90;99.90
73643;DHT22;61938;48.652;9.292;2023-07-24T01:42:36;17.80;99.90
73643;DHT22;61938;48.652;9.292;2023-07-24T01:45:03;17.70;99.90
73643;DHT22;61938;48.652;9.292;2023-07-24T01:47:29;17.50;99.90
73643;DHT22;61938;48.652;9.292;2023-07-24T01:49:55;17.40;99.90
73643;DHT22;61938;48.652;9.292;2023-07-24T01:52:21;17.30;99.90
73643;DHT22;61938;48.652;9.292;2023-07-24T01:54:46;17.30;99.90
73643;DHT22;61938;48.652;9.292;2023-07-24T01:57:12;17.30;99.90
73643;DHT22;61938;48.652;9.292;2023-07-24T01:59:37;17.30;99.90
73643;DHT22;61938;48.652;9.292;2023-07-24T02:02:03;17.30;99.90
73643;DHT22;61938;48.652;9.292;2023-07-24T02:04:28;17.30;99.90
73643;DHT22;61938;48.652;9.292;2023-07-24T02:06:54;17.30;99.90
73643;DHT22;61938;48.652;9.292;2023-07-24T02:09:19;17.30;99.90
73643;DHT22;61938;48.652;9.292;2023-07-24T02:11:45;17.30;99.90
73643;DHT22;61938;48.652;9.292;2023-07-24T02:14:14;17.20;99.90
73643;DHT22;61938;48.652;9.292;2023-07-24T02:16:42;17.20;99.90
73643;DHT22;61938;48.652;9.292;2023-07-24T02:19:07;17.20;99.90
73643;DHT22;61938;48.652;9.292;2023-07-24T02:21:33;17.10;99.90
73643;DHT22;61938;48.652;9.292;2023-07-24T02:23:58;17.20;99.90
73643;DHT22;61938;48.652;9.292;2023-07-24T02:26:24;17.10;99.90
73643;DHT22;61938;48.652;9.292;2023-07-24T02:28:49;17.00;99.90
73643;DHT22;61938;48.652;9.292;2023-07-24T02:31:15;17.00;99.90
73643;DHT22;61938;48.652;9.292;2023-07-24T02:33:41;16.90;99.90
73643;DHT22;61938;48.652;9.292;2023-07-24T02:36:06;16.90;99.90
73643;DHT22;61938;48.652;9.292;2023-07-24T02:38:32;16.80;99.90
73643;DHT22;61938;48.652;9.292;2023-07-24T02:40:57;16.80;99.90
73643;DHT22;61938;48.652;9.292;2023-07-24T02:43:23;16.80;99.90
73643;DHT22;61938;48.652;9.292;2023-07-24T02:45:48;16.70;99.90
73643;DHT22;61938;48.652;9.292;2023-07-24T02:48:14;16.70;99.90
73643;DHT22;61938;48.652;9.292;2023-07-24T02:50:40;16.60;99.90
73643;DHT22;61938;48.652;9.292;2023-07-24T02:53:05;16.60;99.90
73643;DHT22;61938;48.652;9.292;2023-07-24T02:55:31;16.50;99.90
73643;DHT22;61938;48.652;9.292;2023-07-24T02:57:56;16.50;99.90
73643;DHT22;61938;48.652;9.292;2023-07-24T03:00:22;16.40;99.90
73643;DHT22;61938;48.652;9.292;2023-07-24T03:02:47;16.40;99.90
73643;DHT22;61938;48.652;9.292;2023-07-24T03:05:13;16.40;99.90
73643;DHT22;61938;48.652;9.292;2023-07-24T03:07:38;16.40;99.90
73643;DHT22;61938;48.652;9.292;2023-07-24T03:10:04;16.30;99.90
73643;DHT22;61938;48.652;9.292;2023-07-24T03:12:30;16.20;99.90
73643;DHT22;61938;48.652;9.292;2023-07-24T03:14:56;16.10;99.90
73643;DHT22;61938;48.652;9.292;2023-07-24T03:17:22;16.10;99.90
73643;DHT22;61938;48.652;9.292;2023-07-24T03:19:48;16.00;99.90
73643;DHT22;61938;48.652;9.292;2023-07-24T03:22:14;15.90;99.90
73643;DHT22;61938;48.652;9.292;2023-07-24T03:24:40;15.80;99.90
73643;DHT22;61938;48.652;9.292;2023-07-24T03:27:05;15.80;99.90
73643;DHT22;61938;48.652;9.292;2023-07-24T03:29:31;15.70;99.90
73643;DHT22;61938;48.652;9.292;2023-07-24T03:31:56;15.70;99.90
73643;DHT22;61938;48.652;9.292;2023-07-24T03:34:22;15.70;99.90
73643;DHT22;61938;48.652;9.292;2023-07-24T03:36:47;15.60;99.90
73643;DHT22;61938;48.652;9.292;2023-07-24T03:39:13;15.70;99.90
73643;DHT22;61938;48.652;9.292;2023-07-24T03:41:41;15.60;99.90
73643;DHT22;61938;48.652;9.292;2023-07-24T03:44:07;15.60;99.90
73643;DHT22;61938;48.652;9.292;2023-07-24T03:46:33;15.60;99.90
73643;DHT22;61938;48.652;9.292;2023-07-24T03:48:58;15.50;99.90
73643;DHT22;61938;48.652;9.292;2023-07-24T03:51:24;15.60;99.90
73643;DHT22;61938;48.652;9.292;2023-07-24T03:53:49;15.60;99.90
73643;DHT22;61938;48.652;9.292;2023-07-24T03:56:15;15.50;99.90
73643;DHT22;61938;48.652;9.292;2023-07-24T03:58:41;15.60;99.90
73643;DHT22;61938;48.652;9.292;2023-07-24T04:01:07;15.70;99.90
73643;DHT22;61938;48.652;9.292;2023-07-24T04:03:33;15.70;99.90
73643;DHT22;61938;48.652;9.292;2023-07-24T04:05:59;15.70;99.90
73643;DHT22;61938;48.652;9.292;2023-07-24T04:08:24;15.80;99.90
73643;DHT22;61938;48.652;9.292;2023-07-24T04:10:50;15.90;99.90
73643;DHT22;61938;48.652;9.292;2023-07-24T04:13:15;15.90;99.90
73643;DHT22;61938;48.652;9.292;2023-07-24T04:15:41;16.00;99.90
73643;DHT22;61938;48.652;9.292;2023-07-24T04:18:07;16.10;99.90
73643;DHT22;61938;48.652;9.292;2023-07-24T04:20:32;16.20;99.90
73643;DHT22;61938;48.652;9.292;2023-07-24T04:22:57;16.20;99.90
73643;DHT22;61938;48.652;9.292;2023-07-24T04:25:23;16.30;99.90
73643;DHT22;61938;48.652;9.292;2023-07-24T04:27:49;16.30;99.90
73643;DHT22;61938;48.652;9.292;2023-07-24T04:30:14;16.40;99.90
73643;DHT22;61938;48.652;9.292;2023-07-24T04:32:40;16.40;99.90
73643;DHT22;61938;48.652;9.292;2023-07-24T04:35:06;16.50;99.90
73643;DHT22;61938;48.652;9.292;2023-07-24T04:37:31;16.60;99.90
73643;DHT22;61938;48.652;9.292;2023-07-24T04:39:57;16.70;99.90
73643;DHT22;61938;48.652;9.292;2023-07-24T04:42:22;16.80;99.90
73643;DHT22;61938;48.652;9.292;2023-07-24T04:44:48;16.80;99.90
73643;DHT22;61938;48.652;9.292;2023-07-24T04:47:15;16.80;99.90
73643;DHT22;61938;48.652;9.292;2023-07-24T04:49:40;16.90;99.90
73643;DHT22;61938;48.652;9.292;2023-07-24T04:52:06;16.90;99.90
73643;DHT22;61938;48.652;9.292;2023-07-24T04:54:31;16.90;99.90
73643;DHT22;61938;48.652;9.292;2023-07-24T04:56:57;17.20;99.90
73643;DHT22;61938;48.652;9.292;2023-07-24T04:59:22;17.20;99.90
73643;DHT22;61938;48.652;9.292;2023-07-24T05:01:49;17.30;99.90
73643;DHT22;61938;48.652;9.292;2023-07-24T05:04:14;17.40;99.90
73643;DHT22;61938;48.652;9.292;2023-07-24T05:06:40;17.50;99.90
73643;DHT22;61938;48.652;9.292;2023-07-24T05:09:05;17.50;99.90
73643;DHT22;61938;48.652;9.292;2023-07-24T05:11:31;17.70;99.90
73643;DHT22;61938;48.652;9.292;2023-07-24T05:13:56;17.70;99.90
73643;DHT22;61938;48.652;9.292;2023-07-24T05:16:22;17.90;99.90
73643;DHT22;61938;48.652;9.292;2023-07-24T05:18:47;18.00;99.90
73643;DHT22;61938;48.652;9.292;2023-07-24T05:21:13;18.00;99.90
73643;DHT22;61938;48.652;9.292;2023-07-24T05:23:38;18.00;99.90
73643;DHT22;61938;48.652;9.292;2023-07-24T05:26:04;17.90;99.90
73643;DHT22;61938;48.652;9.292;2023-07-24T05:28:30;17.90;99.90
73643;DHT22;61938;48.652;9.292;2023-07-24T05:31:00;18.00;99.90
73643;DHT22;61938;48.652;9.292;2023-07-24T05:33:27;17.90;99.90
73643;DHT22;61938;48.652;9.292;2023-07-24T05:35:58;18.00;99.90
73643;DHT22;61938;48.652;9.292;2023-07-24T05:38:23;18.00;99.90
73643;DHT22;61938;48.652;9.292;2023-07-24T05:40:55;18.00;99.90
73643;DHT22;61938;48.652;9.292;2023-07-24T05:43:20;18.10;99.90
73643;DHT22;61938;48.652;9.292;2023-07-24T05:45:45;18.10;99.90
73643;DHT22;61938;48.652;9.292;2023-07-24T05:48:11;18.00;99.90
73643;DHT22;61938;48.652;9.292;2023-07-24T05:50:36;18.00;99.90
73643;DHT22;61938;48.652;9.292;2023-07-24T05:53:02;18.00;99.90
73643;DHT22;61938;48.652;9.292;2023-07-24T05:55:27;17.90;99.90
73643;DHT22;61938;48.652;9.292;2023-07-24T05:57:53;17.90;99.90
73643;DHT22;61938;48.652;9.292;2023-07-24T06:00:18;17.90;99.90
73643;DHT22;61938;48.652;9.292;2023-07-24T06:02:44;17.90;99.90
73643;DHT22;61938;48.652;9.292;2023-07-24T06:05:10;17.90;99.90
73643;DHT22;61938;48.652;9.292;2023-07-24T06:07:35;18.00;99.90
73643;DHT22;61938;48.652;9.292;2023-07-24T06:10:01;18.00;99.90
73643;DHT22;61938;48.652;9.292;2023-07-24T06:12:26;18.10;99.90
73643;DHT22;61938;48.652;9.292;2023-07-24T06:14:52;18.20;99.90
73643;DHT22;61938;48.652;9.292;2023-07-24T06:17:17;18.20;99.90
73643;DHT22;61938;48.652;9.292;2023-07-24T06:19:43;18.20;99.90
73643;DHT22;61938;48.652;9.292;2023-07-24T06:22:08;18.30;99.90
73643;DHT22;61938;48.652;9.292;2023-07-24T06:24:34;18.30;99.90
73643;DHT22;61938;48.652;9.292;2023-07-24T06:26:59;18.30;99.90
73643;DHT22;61938;48.652;9.292;2023-07-24T06:29:25;18.40;99.90
73643;DHT22;61938;48.652;9.292;2023-07-24T06:31:51;18.40;99.90
73643;DHT22;61938;48.652;9.292;2023-07-24T06:34:16;18.40;99.90
73643;DHT22;61938;48.652;9.292;2023-07-24T06:36:42;18.50;99.90
73643;DHT22;61938;48.652;9.292;2023-07-24T06:39:07;18.60;99.90
73643;DHT22;61938;48.652;9.292;2023-07-24T06:41:33;18.60;99.90
73643;DHT22;61938;48.652;9.292;2023-07-24T06:43:58;18.60;99.90
73643;DHT22;61938;48.652;9.292;2023-07-24T06:46:24;18.70;99.90
73643;DHT22;61938;48.652;9.292;2023-07-24T06:48:49;18.70;99.90
73643;DHT22;61938;48.652;9.292;2023-07-24T06:51:15;18.70;99.90
73643;DHT22;61938;48.652;9.292;2023-07-24T06:53:40;18.80;99.90
73643;DHT22;61938;48.652;9.292;2023-07-24T06:56:06;18.90;99.90
73643;DHT22;61938;48.652;9.292;2023-07-24T06:58:32;19.00;99.90
73643;DHT22;61938;48.652;9.292;2023-07-24T07:00:57;19.00;99.90
73643;DHT22;61938;48.652;9.292;2023-07-24T07:03:22;19.20;99.90
73643;DHT22;61938;48.652;9.292;2023-07-24T07:05:48;19.30;99.90
73643;DHT22;61938;48.652;9.292;2023-07-24T07:08:13;19.30;99.90
73643;DHT22;61938;48.652;9.292;2023-07-24T07:10:39;19.40;99.90
73643;DHT22;61938;48.652;9.292;2023-07-24T07:13:04;19.50;99.90
73643;DHT22;61938;48.652;9.292;2023-07-24T07:15:30;19.50;99.90
73643;DHT22;61938;48.652;9.292;2023-07-24T07:17:55;19.60;99.90
73643;DHT22;61938;48.652;9.292;2023-07-24T07:20:21;19.60;99.90
73643;DHT22;61938;48.652;9.292;2023-07-24T07:22:46;19.70;99.90
73643;DHT22;61938;48.652;9.292;2023-07-24T07:25:12;19.80;99.90
73643;DHT22;61938;48.652;9.292;2023-07-24T07:27:37;19.80;99.90
73643;DHT22;61938;48.652;9.292;2023-07-24T07:30:03;19.90;99.90
73643;DHT22;61938;48.652;9.292;2023-07-24T07:32:29;19.90;99.90
73643;DHT22;61938;48.652;9.292;2023-07-24T07:34:55;20.10;99.90
73643;DHT22;61938;48.652;9.292;2023-07-24T07:37:20;20.30;99.90
73643;DHT22;61938;48.652;9.292;2023-07-24T07:39:46;21.50;99.90
73643;DHT22;61938;48.652;9.292;2023-07-24T07:42:11;20.60;99.90
73643;DHT22;61938;48.652;9.292;2023-07-24T07:44:37;20.60;99.90
73643;DHT22;61938;48.652;9.292;2023-07-24T07:47:02;20.60;99.90
73643;DHT22;61938;48.652;9.292;2023-07-24T07:49:28;20.70;99.90
73643;DHT22;61938;48.652;9.292;2023-07-24T07:51:54;20.70;99.90
73643;DHT22;61938;48.652;9.292;2023-07-24T07:54:20;20.70;99.90
73643;DHT22;61938;48.652;9.292;2023-07-24T07:56:45;20.60;99.90
73643;DHT22;61938;48.652;9.292;2023-07-24T07:59:10;20.70;99.90
73643;DHT22;61938;48.652;9.292;2023-07-24T08:01:37;20.70;99.90
73643;DHT22;61938;48.652;9.292;2023-07-24T08:04:04;20.60;99.90
73643;DHT22;61938;48.652;9.292;2023-07-24T08:06:30;20.70;99.90
73643;DHT22;61938;48.652;9.292;2023-07-24T08:08:55;20.60;99.90
73643;DHT22;61938;48.652;9.292;2023-07-24T08:11:21;20.50;99.90
73643;DHT22;61938;48.652;9.292;2023-07-24T08:13:46;20.40;99.90
73643;DHT22;61938;48.652;9.292;2023-07-24T08:16:15;20.40;99.90
73643;DHT22;61938;48.652;9.292;2023-07-24T08:18:46;20.40;99.90
73643;DHT22;61938;48.652;9.292;2023-07-24T08:21:12;20.40;99.90
73643;DHT22;61938;48.652;9.292;2023-07-24T08:23:39;20.50;99.90
73643;DHT22;61938;48.652;9.292;2023-07-24T08:26:04;20.50;99.90
73643;DHT22;61938;48.652;9.292;2023-07-24T08:28:30;20.50;99.90
73643;DHT22;61938;48.652;9.292;2023-07-24T08:30:57;20.50;99.90
73643;DHT22;61938;48.652;9.292;2023-07-24T08:33:23;20.50;99.90
73643;DHT22;61938;48.652;9.292;2023-07-24T08:36:03;20.50;99.90
73643;DHT22;61938;48.652;9.292;2023-07-24T08:38:29;20.50;99.90
73643;DHT22;61938;48.652;9.292;2023-07-24T08:41:08;20.50;99.90
73643;DHT22;61938;48.652;9.292;2023-07-24T08:43:36;20.40;99.90
73643;DHT22;61938;48.652;9.292;2023-07-24T08:46:02;20.30;99.90
73643;DHT22;61938;48.652;9.292;2023-07-24T08:48:31;20.20;99.90
73643;DHT22;61938;48.652;9.292;2023-07-24T08:50:59;20.10;99.90
73643;DHT22;61938;48.652;9.292;2023-07-24T08:53:26;20.00;99.90
73643;DHT22;61938;48.652;9.292;2023-07-24T08:55:52;20.00;99.90
73643;DHT22;61938;48.652;9.292;2023-07-24T08:58:18;20.00;99.90
73643;DHT22;61938;48.652;9.292;2023-07-24T09:00:43;20.00;99.90
73643;DHT22;61938;48.652;9.292;2023-07-24T09:03:09;20.00;99.90
73643;DHT22;61938;48.652;9.292;2023-07-24T09:05:35;20.00;99.90
73643;DHT22;61938;48.652;9.292;2023-07-24T09:08:00;20.10;99.90
73643;DHT22;61938;48.652;9.292;2023-07-24T09:10:26;20.00;99.90
73643;DHT22;61938;48.652;9.292;2023-07-24T09:12:52;20.10;99.90
73643;DHT22;61938;48.652;9.292;2023-07-24T09:15:18;20.10;99.90
73643;DHT22;61938;48.652;9.292;2023-07-24T09:17:53;20.30;99.90
73643;DHT22;61938;48.652;9.292;2023-07-24T09:20:19;20.30;99.90
73643;DHT22;61938;48.652;9.292;2023-07-24T09:22:52;20.30;99.90
73643;DHT22;61938;48.652;9.292;2023-07-24T09:25:18;20.40;99.90
73643;DHT22;61938;48.652;9.292;2023-07-24T09:27:44;20.50;99.90
73643;DHT22;61938;48.652;9.292;2023-07-24T09:30:14;20.50;99.90
73643;DHT22;61938;48.652;9.292;2023-07-24T09:32:40;20.70;99.90
73643;DHT22;61938;48.652;9.292;2023-07-24T09:35:16;20.70;99.90
73643;DHT22;61938;48.652;9.292;2023-07-24T09:37:42;20.60;99.90
73643;DHT22;61938;48.652;9.292;2023-07-24T09:40:09;20.60;99.90
73643;DHT22;61938;48.652;9.292;2023-07-24T09:42:36;20.50;99.90
73643;DHT22;61938;48.652;9.292;2023-07-24T09:45:03;20.40;99.90
73643;DHT22;61938;48.652;9.292;2023-07-24T09:47:29;20.30;99.90
73643;DHT22;61938;48.652;9.292;2023-07-24T09:49:55;20.30;99.90
73643;DHT22;61938;48.652;9.292;2023-07-24T09:52:21;20.30;99.90
73643;DHT22;61938;48.652;9.292;2023-07-24T09:57:21;20.30;99.90
73643;DHT22;61938;48.652;9.292;2023-07-24T09:59:48;20.30;99.90
73643;DHT22;61938;48.652;9.292;2023-07-24T10:02:14;20.30;99.90
73643;DHT22;61938;48.652;9.292;2023-07-24T10:04:40;20.30;99.90
73643;DHT22;61938;48.652;9.292;2023-07-24T10:07:06;20.20;99.90
73643;DHT22;61938;48.652;9.292;2023-07-24T10:09:33;20.10;99.90
73643;DHT22;61938;48.652;9.292;2023-07-24T10:11:59;20.10;99.90
73643;DHT22;61938;48.652;9.292;2023-07-24T10:14:26;20.10;99.90
73643;DHT22;61938;48.652;9.292;2023-07-24T10:16:52;20.10;99.90
73643;DHT22;61938;48.652;9.292;2023-07-24T10:19:21;20.00;99.90
73643;DHT22;61938;48.652;9.292;2023-07-24T10:21:47;19.90;99.90
73643;DHT22;61938;48.652;9.292;2023-07-24T10:24:14;19.90;99.90
73643;DHT22;61938;48.652;9.292;2023-07-24T10:26:40;19.80;99.90
73643;DHT22;61938;48.652;9.292;2023-07-24T10:29:06;19.70;99.90
73643;DHT22;61938;48.652;9.292;2023-07-24T10:31:32;19.60;99.90
73643;DHT22;61938;48.652;9.292;2023-07-24T10:34:04;19.60;99.90
73643;DHT22;61938;48.652;9.292;2023-07-24T10:36:34;19.50;99.90
73643;DHT22;61938;48.652;9.292;2023-07-24T10:38:59;19.40;99.90
73643;DHT22;61938;48.652;9.292;2023-07-24T10:41:36;19.40;99.90
73643;DHT22;61938;48.652;9.292;2023-07-24T10:44:02;19.30;99.90
73643;DHT22;61938;48.652;9.292;2023-07-24T10:46:41;20.70;99.90
73643;DHT22;61938;48.652;9.292;2023-07-24T10:49:08;19.30;99.90
73643;DHT22;61938;48.652;9.292;2023-07-24T10:51:34;19.30;99.90
73643;DHT22;61938;48.652;9.292;2023-07-24T10:54:03;19.30;99.90
73643;DHT22;61938;48.652;9.292;2023-07-24T10:56:29;19.30;99.90
73643;DHT22;61938;48.652;9.292;2023-07-24T10:58:55;19.30;99.90
73643;DHT22;61938;48.652;9.292;2023-07-24T11:01:20;19.30;99.90
73643;DHT22;61938;48.652;9.292;2023-07-24T11:03:46;19.30;99.90
73643;DHT22;61938;48.652;9.292;2023-07-24T11:06:17;19.30;99.90
73643;DHT22;61938;48.652;9.292;2023-07-24T11:08:50;19.30;99.90
73643;DHT22;61938;48.652;9.292;2023-07-24T11:11:16;19.20;99.90
73643;DHT22;61938;48.652;9.292;2023-07-24T11:13:41;19.20;99.90
73643;DHT22;61938;48.652;9.292;2023-07-24T11:16:08;19.30;99.90
73643;DHT22;61938;48.652;9.292;2023-07-24T11:18:47;19.00;99.90
73643;DHT22;61938;48.652;9.292;2023-07-24T11:21:12;19.00;99.90
73643;DHT22;61938;48.652;9.292;2023-07-24T11:23:45;19.00;99.90
73643;DHT22;61938;48.652;9.292;2023-07-24T11:26:11;18.90;99.90
73643;DHT22;61938;48.652;9.292;2023-07-24T11:28:40;18.90;99.90
73643;DHT22;61938;48.652;9.292;2023-07-24T11:31:06;18.70;99.90
73643;DHT22;61938;48.652;9.292;2023-07-24T11:33:31;18.80;99.90
73643;DHT22;61938;48.652;9.292;2023-07-24T11:35:58;18.70;99.90
73643;DHT22;61938;48.652;9.292;2023-07-24T11:38:23;18.70;99.90
73643;DHT22;61938;48.652;9.292;2023-07-24T11:40:49;18.80;99.90
73643;DHT22;61938;48.652;9.292;2023-07-24T11:43:20;18.90;99.90
73643;DHT22;61938;48.652;9.292;2023-07-24T11:45:46;19.20;99.90
73643;DHT22;61938;48.652;9.292;2023-07-24T11:48:14;19.40;99.90
73643;DHT22;61938;48.652;9.292;2023-07-24T11:50:46;19.70;99.90
73643;DHT22;61938;48.652;9.292;2023-07-24T11:53:23;19.90;99.90
73643;DHT22;61938;48.652;9.292;2023-07-24T11:55:51;19.90;99.90
73643;DHT22;61938;48.652;9.292;2023-07-24T11:58:17;20.00;99.90
73643;DHT22;61938;48.652;9.292;2023-07-24T12:00:43;19.90;99.90
73643;DHT22;61938;48.652;9.292;2023-07-24T12:03:08;20.00;99.90
73643;DHT22;61938;48.652;9.292;2023-07-24T12:05:41;20.00;99.90
73643;DHT22;61938;48.652;9.292;2023-07-24T12:08:07;19.90;99.90
73643;DHT22;61938;48.652;9.292;2023-07-24T12:10:36;20.00;99.90
73643;DHT22;61938;48.652;9.292;2023-07-24T12:13:01;20.10;99.90
73643;DHT22;61938;48.652;9.292;2023-07-24T12:15:27;20.40;99.90
73643;DHT22;61938;48.652;9.292;2023-07-24T12:17:53;20.80;99.90
73643;DHT22;61938;48.652;9.292;2023-07-24T12:20:18;21.10;99.90
73643;DHT22;61938;48.652;9.292;2023-07-24T12:22:44;21.40;99.90
73643;DHT22;61938;48.652;9.292;2023-07-24T12:25:09;21.80;99.90
73643;DHT22;61938;48.652;9.292;2023-07-24T12:27:35;22.00;99.90
73643;DHT22;61938;48.652;9.292;2023-07-24T12:30:02;22.20;99.90
73643;DHT22;61938;48.652;9.292;2023-07-24T12:32:28;22.30;99.90
73643;DHT22;61938;48.652;9.292;2023-07-24T12:34:54;22.40;99.90
73643;DHT22;61938;48.652;9.292;2023-07-24T12:37:20;22.60;99.90
73643;DHT22;61938;48.652;9.292;2023-07-24T12:39:46;22.60;99.90
73643;DHT22;61938;48.652;9.292;2023-07-24T12:42:12;22.40;99.90
73643;DHT22;61938;48.652;9.292;2023-07-24T12:44:38;22.30;99.90
73643;DHT22;61938;48.652;9.292;2023-07-24T12:47:04;22.40;99.90
73643;DHT22;61938;48.652;9.292;2023-07-24T12:49:30;22.40;99.90
73643;DHT22;61938;48.652;9.292;2023-07-24T12:51:55;22.50;99.90
73643;DHT22;61938;48.652;9.292;2023-07-24T12:54:21;22.40;99.90
73643;DHT22;61938;48.652;9.292;2023-07-24T12:56:48;22.20;99.90
73643;DHT22;61938;48.652;9.292;2023-07-24T12:59:13;22.20;99.90
73643;DHT22;61938;48.652;9.292;2023-07-24T13:01:39;22.00;99.90
73643;DHT22;61938;48.652;9.292;2023-07-24T13:04:05;21.90;99.90
73643;DHT22;61938;48.652;9.292;2023-07-24T13:06:30;21.80;99.90
73643;DHT22;61938;48.652;9.292;2023-07-24T13:08:56;21.90;99.90
73643;DHT22;61938;48.652;9.292;2023-07-24T13:11:21;22.10;99.90
73643;DHT22;61938;48.652;9.292;2023-07-24T13:13:47;22.40;99.90
73643;DHT22;61938;48.652;9.292;2023-07-24T13:16:13;22.60;99.90
73643;DHT22;61938;48.652;9.292;2023-07-24T13:18:38;22.60;99.90
73643;DHT22;61938;48.652;9.292;2023-07-24T13:21:04;22.70;99.90
73643;DHT22;61938;48.652;9.292;2023-07-24T13:23:31;22.60;99.90
73643;DHT22;61938;48.652;9.292;2023-07-24T13:25:57;22.60;99.90
73643;DHT22;61938;48.652;9.292;2023-07-24T13:28:22;22.60;99.90
73643;DHT22;61938;48.652;9.292;2023-07-24T13:30:48;22.50;99.90
73643;DHT22;61938;48.652;9.292;2023-07-24T13:33:13;22.40;99.90
73643;DHT22;61938;48.652;9.292;2023-07-24T13:35:39;22.40;99.90
73643;DHT22;61938;48.652;9.292;2023-07-24T13:38:04;22.30;99.90
73643;DHT22;61938;48.652;9.292;2023-07-24T13:40:30;22.30;99.90
73643;DHT22;61938;48.652;9.292;2023-07-24T13:42:56;22.20;99.90
73643;DHT22;61938;48.652;9.292;2023-07-24T13:45:21;22.10;99.90
73643;DHT22;61938;48.652;9.292;2023-07-24T13:47:47;22.10;99.90
73643;DHT22;61938;48.652;9.292;2023-07-24T13:50:12;22.20;99.90
73643;DHT22;61938;48.652;9.292;2023-07-24T13:52:38;22.30;99.90
73643;DHT22;61938;48.652;9.292;2023-07-24T13:55:04;22.30;99.90
73643;DHT22;61938;48.652;9.292;2023-07-24T13:57:30;22.40;99.90
73643;DHT22;61938;48.652;9.292;2023-07-24T13:59:55;22.40;99.90
73643;DHT22;61938;48.652;9.292;2023-07-24T14:02:21;22.40;99.90
73643;DHT22;61938;48.652;9.292;2023-07-24T14:04:46;22.40;99.90
73643;DHT22;61938;48.652;9.292;2023-07-24T14:07:11;22.40;99.90
73643;DHT22;61938;48.652;9.292;2023-07-24T14:09:38;22.30;99.90
73643;DHT22;61938;48.652;9.292;2023-07-24T14:12:04;22.30;99.90
73643;DHT22;61938;48.652;9.292;2023-07-24T14:14:30;22.20;99.90
73643;DHT22;61938;48.652;9.292;2023-07-24T14:16:55;22.20;99.90
73643;DHT22;61938;48.652;9.292;2023-07-24T14:19:21;22.20;99.90
73643;DHT22;61938;48.652;9.292;2023-07-24T14:21:49;22.00;99.90
73643;DHT22;61938;48.652;9.292;2023-07-24T14:24:15;22.00;99.90
73643;DHT22;61938;48.652;9.292;2023-07-24T14:26:40;21.90;99.90
73643;DHT22;61938;48.652;9.292;2023-07-24T14:29:06;22.00;99.90
73643;DHT22;61938;48.652;9.292;2023-07-24T14:31:32;21.90;99.90
73643;DHT22;61938;48.652;9.292;2023-07-24T14:33:57;21.90;99.90
73643;DHT22;61938;48.652;9.292;2023-07-24T14:36:23;22.10;99.90
73643;DHT22;61938;48.652;9.292;2023-07-24T14:38:48;22.10;99.90
73643;DHT22;61938;48.652;9.292;2023-07-24T14:41:16;21.90;99.90
73643;DHT22;61938;48.652;9.292;2023-07-24T14:43:41;22.20;99.90
73643;DHT22;61938;48.652;9.292;2023-07-24T14:46:07;22.20;99.90
73643;DHT22;61938;48.652;9.292;2023-07-24T14:48:32;22.40;99.90
73643;DHT22;61938;48.652;9.292;2023-07-24T14:50:58;22.70;99.90
73643;DHT22;61938;48.652;9.292;2023-07-24T14:53:23;22.60;99.90
73643;DHT22;61938;48.652;9.292;2023-07-24T14:55:49;22.60;99.90
73643;DHT22;61938;48.652;9.292;2023-07-24T14:58:14;22.20;99.90
73643;DHT22;61938;48.652;9.292;2023-07-24T15:00:40;22.00;99.90
73643;DHT22;61938;48.652;9.292;2023-07-24T15:03:05;22.00;99.90
73643;DHT22;61938;48.652;9.292;2023-07-24T15:05:31;21.90;99.90
73643;DHT22;61938;48.652;9.292;2023-07-24T15:07:57;21.70;99.90
73643;DHT22;61938;48.652;9.292;2023-07-24T15:10:22;21.50;99.90
73643;DHT22;61938;48.652;9.292;2023-07-24T15:12:48;21.40;99.90
73643;DHT22;61938;48.652;9.292;2023-07-24T15:15:13;21.20;99.90
73643;DHT22;61938;48.652;9.292;2023-07-24T15:17:39;21.00;99.90
73643;DHT22;61938;48.652;9.292;2023-07-24T15:20:06;20.90;99.90
73643;DHT22;61938;48.652;9.292;2023-07-24T15:22:33;20.80;99.90
73643;DHT22;61938;48.652;9.292;2023-07-24T15:24:59;20.80;99.90
73643;DHT22;61938;48.652;9.292;2023-07-24T15:27:25;20.90;99.90